CLASSIFICA

WINTER KNIGHT RACE 2018

GARA OCR KM 9

URBANIA 06/01/2018

DIVISIONI:
COMPETITIVA     CLASSIFICA:   ASSOLUTA    M     F    
CATEGORIE:   TUTTE    |   18-24(F)   |   18-24(M)   |   25-29(F)   |   25-29(M)   |   30-34(F)   |   30-34(M)   |   35-39(F)   |   35-39(M)   |   40-44(F)   |   40-44(M)   |   45-49(F)   |   45-49(M)   |   50-99(M)  
ALTRO: Classifica squadre 
FILTRO:
  Atleta      Team        Pulisci       Atleti classificati COMPETITIVA: 157  

Cliccare sulle colonne per cambiare ordinamento Pagina:   | 1 | | 2 | | 3 | | 4 |
Azioni Pos. M/F Cat. P.Cat. Pett Naz Atleta Squadra Tempo Distacco in tempo Distacco in metri Min/Km Braccialetti
1130-34(M)1229TONNICCHI FEDERICOLIBERO00:50:04 00:00:00 0 00:05:34 3
2225-29(M)1231MORICONI MANUELLEO WHITE TEAM00:50:21 00:00:17 51 00:05:36 3
3325-29(M)2238DEL PIANO ANDREATEAM INFERNO00:51:54 00:01:50 318 00:05:46 3
4440-44(M)1202BORACCHIA MATTEOWHITE DONKEYS OCR TEAM00:57:00 00:06:56 1.095 00:06:20 3
5530-34(M)2164CHIOCCI ALESSANDROIRONFIT TEAM COMPETITION00:57:18 00:07:14 1.136 00:06:22 3
6640-44(M)2193BONDI DIEGOLIBERO00:58:26 00:08:22 1.289 00:06:30 3
7730-34(M)3197BERTOLASI MARCOWHITE DONKEYS OCR TEAM00:59:24 00:09:20 1.414 00:06:36 3
8840-44(M)3152CAPUCCI ERIKROMAGNA WILD RACE00:59:31 00:09:27 1.429 00:06:37 3
9918-24(M)1167SPACCAZOCCHI JACOPO BRUNOLIBERO01:00:21 00:10:17 1.534 00:06:42 3
101040-44(M)4214SANTILLI MIRCOLIBERO01:01:24 00:11:20 1.661 00:06:49 3
111125-29(M)3107MAFFEI GIACOMOLIBERO01:01:30 00:11:26 1.673 00:06:50 3
121225-29(M)4177AGUZZI DAVIDELIBERO01:01:48 00:11:44 1.709 00:06:52 3
131335-39(M)1194ROSSI DAVIDLIBERO01:02:05 00:12:01 1.742 00:06:54 3
141425-29(M)5146ANDRUCCIOLI MATTIAROMAGNA WILD RACE01:03:43 00:13:39 1.928 00:07:05 3
151518-24(M)2200QUAGLIANI LEONARDOLIBERO01:04:11 00:14:07 1.979 00:07:08 3
161618-24(M)3224MINELLI DAVIDECROSS RULEZ GUBBIO01:04:58 00:14:54 2.064 00:07:13 3
171740-44(M)5157MORETTI DANIELEGYM CENTER01:05:17 00:15:13 2.098 00:07:15 3
181830-34(M)4198BELLODI ANDREAWHITE DONKEYS OCR TEAM01:05:45 00:15:41 2.147 00:07:18 3
191930-34(M)5235PAOLOZZA JHONATHANLIBERO01:05:56 00:15:52 2.166 00:07:20 3
202030-34(M)6169CAPPELLAZZO GABRIELEGYM CENTER01:06:38 00:16:34 2.238 00:07:24 3
212130-34(M)7102FALCINELLI ANDREALIBERO01:07:20 00:17:16 2.308 00:07:29 3
222240-44(M)6154MASALA ENRICOANIMALS OCR TEAM01:07:52 00:17:48 2.361 00:07:32 3
232335-39(M)2158BONFANTI ANDREALIBERO01:07:52 00:17:48 2.361 00:07:32 3
242440-44(M)7160DADDOVERI MASSIMOLIBERO01:09:02 00:18:58 2.473 00:07:40 3
252530-34(M)8213IADAROLA GIOVANNIANIS MUDDERS01:09:34 00:19:30 2.523 00:07:44 3
262635-39(M)3232SARTORI MARCOROMAGNA WILD RACE01:10:11 00:20:07 2.580 00:07:48 3
272730-34(M)9165MAGLIOZZI ALESSANDROLIBERO01:10:15 00:20:11 2.586 00:07:48 3
282830-34(M)10114SCARONCINI FORNARO MARCOLIBERO01:10:31 00:20:27 2.610 00:07:50 3
292925-29(M)6173VOICU IOANLIBERO01:10:57 00:20:53 2.649 00:07:53 3
303030-34(M)11196ALESIANI STEFANOLIBERO01:11:17 00:21:13 2.679 00:07:55 3
313145-49(M)1241AMATORI ROBERTOLIBERO01:11:38 00:21:34 2.710 00:07:58 3
323245-49(M)2108CECCOTTI DANIELELIBERO01:11:42 00:21:38 2.715 00:07:58 3
333330-34(M)12115SHYTI FLORJANLIBERO01:12:13 00:22:09 2.760 00:08:01 3
343425-29(M)7142GIUNTA VINCENZOASD CHAOS PRIMORDIALE01:12:31 00:22:27 2.786 00:08:03 3
353540-44(M)8106CARLINI MARCOENERGYPLANET01:13:20 00:23:16 2.855 00:08:09 3
363635-39(M)4190TIBERI ANTONIOLIBERO01:14:19 00:24:15 2.937 00:08:15 3
373718-24(M)4215TOSELLI MARCOANIS MUDDERS01:14:35 00:24:31 2.958 00:08:17 3
383825-29(M)8234PALVARINI ANDREAANIMALS OCR TEAM01:14:57 00:24:53 2.988 00:08:20 3
393940-44(M)9144ROSSI ROBERTOROMAGNA WILD RACE01:15:45 00:25:41 3.051 00:08:25 3
40140-44(F)1426RIGA SELENEWHITE DONKEYS OCR TEAM01:17:35 00:27:31 3.192 00:08:37 3
414040-44(M)10201PANNESE FULVIOROMA OCR TEAM01:18:41 00:28:37 3.273 00:08:45 3
424118-24(M)5225TUROLLA FEDERICOANIS MUDDERS01:21:21 00:31:17 3.461 00:09:02 3
434235-39(M)5192GIGLIOTTI CLAUDIOTHE BLACK SHEEP SPARTAN TEAM01:22:12 00:32:08 3.518 00:09:08 3
444330-34(M)13116RAHIM VALERIOASD CHAOS PRIMORDIALE01:23:06 00:33:02 3.578 00:09:14 3
454440-44(M)11109SCIRISCIOLI NICOLASUPER RECKLESS01:26:44 00:36:40 3.805 00:09:38 3
464530-34(M)14184SANTU ALESSIOTHE BLACK SHEEP SPARTAN TEAM01:27:41 00:37:37 3.861 00:09:45 3
474640-44(M)12176SANNA LUCAROMA OCR TEAM01:29:46 00:39:42 3.980 00:09:58 3
484740-44(M)13148TURA SIMONEROMAGNA WILD RACE01:30:12 00:40:08 4.004 00:10:01 3
494850-99(M)1182BIOLI FABRIZIOTHE BLACK SHEEP SPARTAN TEAM01:35:20 00:45:16 4.273 00:10:36 3
504930-34(M)15153VACCA MIRKOLIBERO01:38:56 00:48:52 4.445 00:11:00 3
515025-29(M)9219FANTOZZI PAOLO JUNIORLIBERO01:38:56 00:48:52 4.445 00:11:00 3
525125-29(M)10112AGOSTINELLI FEDERICOLIBERO01:38:56 00:48:52 4.445 00:11:00 3
535225-29(M)11123CHORNOBAY MYKOLALIBERO01:38:56 00:48:52 4.445 00:11:00 3
54225-29(F)1401BARTOLI SARALIBERO01:41:43 00:51:39 4.570 00:11:18 3
55335-39(F)1436MINELLI VALENTINACROSS RULEZ GUBBIO01:42:07 00:52:03 4.587 00:11:21 3
565350-99(M)2189SANTARELLI RENZOTHE BLACK SHEEP SPARTAN TEAM01:46:55 00:56:51 4.786 00:11:53 3
57430-34(F)1437LOVATO DANIELAWHITE DONKEYS OCR TEAM01:47:43 00:57:39 4.817 00:11:58 3
58518-24(F)1424LEMBO FEDERICALIBERO01:51:15 01:01:11 4.950 00:12:22 3
59640-44(F)2422GIARDINO FEDERICAROMA OCR TEAM01:57:00 01:06:56 5.149 00:13:00 3
605430-34(M)16132PIZZO SEBASTIANOSIRACUSA SPARTAN CREW02:15:42 01:25:38 5.679 00:15:05 3
615530-34(M)17181GIORGIS RICCARDOTEAM AROUNDTHEWOD02:28:25 01:38:21 5.964 00:16:29 3
625635-39(M)6133BOSCARINO DAMIANOSIRACUSA SPARTAN CREW02:30:01 01:39:57 5.996 00:16:40 3
635735-39(M)7208BELLINI GIULIOANIS MUDDERS02:38:46 01:48:42 6.162 00:17:38 3
645840-44(M)14138PETRUZZIELLO CARLOANIS MUDDERS02:41:26 01:51:22 6.209 00:17:56 3
655940-44(M)15179PADRONI GRAZIANOTHE BLACK SHEEP SPARTAN TEAM02:41:52 01:51:48 6.216 00:17:59 3
666040-44(M)16103OLMI DAMIANOTEAMPRESSIONO01:10:11 00:20:07 2.580 00:07:48 2
676130-34(M)18209LOPES MASSIMOLEO WHITE TEAM01:12:05 00:22:01 2.749 00:08:01 2
686235-39(M)8233BERTOZZI DAVIDEROMAGNA WILD RACE01:12:09 00:22:05 2.755 00:08:01 2
696335-39(M)9151AGOSTINI ANDREAROMAGNA WILD RACE01:12:42 00:22:38 2.802 00:08:05 2
706435-39(M)10223PINZI MICHELELIBERO01:13:09 00:23:05 2.840 00:08:08 2
716535-39(M)11118RICCI NICOLALIBERO01:14:06 00:24:02 2.919 00:08:14 2
726640-44(M)17145PERAZZINI CRISTIANROMAGNA WILD RACE01:15:46 00:25:42 3.053 00:08:25 2
736745-49(M)3110SAMBUCHI FABIOSUPER RECKLESS01:16:01 00:25:57 3.072 00:08:27 2
746845-49(M)4131BONACORSI ANDREALIBERO01:17:27 00:27:23 3.182 00:08:36 2
75735-39(F)2440IOVINO VERONICAROMA OCR TEAM01:19:26 00:29:22 3.327 00:08:50 2
766940-44(M)18217BRUNETTA BRUNOANIS MUDDERS01:19:39 00:29:35 3.343 00:08:51 2
777025-29(M)12244QUAGLIATA ANTONIOLIBERO01:19:51 00:29:47 3.357 00:08:52 2
787130-34(M)19210ROCCA MATTEOLEO WHITE TEAM01:21:21 00:31:17 3.461 00:09:02 2
797235-39(M)12149FERRI ALESSANDROROMAGNA WILD RACE01:22:56 00:32:52 3.567 00:09:13 2
807330-34(M)20236TELARI MARCOLIBERO01:22:56 00:32:52 3.567 00:09:13 2
817435-39(M)13113CARDINI LUCIANOTEAMPRESSIONO01:26:02 00:35:58 3.762 00:09:34 2
82830-34(F)2409BARDELLINI PAOLALIBERO01:27:49 00:37:45 3.869 00:09:45 2
837530-34(M)21207BONESI DAVIDEWHITE DONKEYS OCR TEAM01:28:02 00:37:58 3.881 00:09:47 2
847625-29(M)13183DE SANTIS GASPARETHE BLACK SHEEP SPARTAN TEAM01:28:05 00:38:01 3.884 00:09:47 2
857735-39(M)14175CESARANO LUIGILIBERO01:41:15 00:51:11 4.550 00:11:15 2
867830-34(M)22139FEDE FRANCESCOASD CHAOS PRIMORDIALE01:41:52 00:51:48 4.577 00:11:19 2
877935-39(M)15134BELLASSAI GIOVANNIASD CHAOS PRIMORDIALE01:41:52 00:51:48 4.577 00:11:19 2
888025-29(M)14140PROFETTO NICOLŅASD CHAOS PRIMORDIALE01:42:39 00:52:35 4.610 00:11:24 2
898130-34(M)23222BRESCINI GABRIELELIBERO01:42:41 00:52:37 4.612 00:11:25 2
908230-34(M)24186ZAPPA STEFANOWHITE DONKEYS OCR TEAM01:44:34 00:54:30 4.691 00:11:37 2
918345-49(M)5203FIORIO DAVIDEWHITE DONKEYS OCR TEAM01:44:36 00:54:32 4.692 00:11:37 2
928450-99(M)3143FAELLA SABINOASD CHAOS PRIMORDIALE01:47:47 00:57:43 4.819 00:11:59 2
938540-44(M)19187MARROCCHINI GIOVANNILIBERO01:52:10 01:02:06 4.983 00:12:28 2
948650-99(M)4161ANGELI FABIOLIBERO01:53:02 01:02:58 5.014 00:12:34 2
958750-99(M)5243FRASCĄ LUCIANOLIBERO01:53:41 01:03:37 5.036 00:12:38 2
968840-44(M)20220GATTAI LORENZOLIBERO02:01:29 01:11:25 5.291 00:13:30 2
978950-99(M)6242STEFANI MARCOLIBERO02:03:25 01:13:21 5.349 00:13:43 2
98918-24(F)2421SISTI ELISALIBERO02:13:21 01:23:17 5.621 00:14:49 2
999045-49(M)6230SEPE MASSIMILIANOLIBERO02:15:42 01:25:38 5.679 00:15:05 2
1009130-34(M)25180DE SIMONE EMANUELETHE BLACK SHEEP SPARTAN TEAM01:14:11 00:24:07 2.926 00:08:15 1
1019225-29(M)15141PELUSO FRANCESCOASD CHAOS PRIMORDIALE01:17:43 00:27:39 3.202 00:08:38 1
1029340-44(M)21218CASCHILI MARCOLIBERO01:18:02 00:27:58 3.226 00:08:40 1
1039435-39(M)16227GATTI ROBERTOIRONFIT TEAM COMPETITION01:19:00 00:28:56 3.296 00:08:47 1
1049550-99(M)7155BARBALISCIA GIANCARLOGYM CENTER01:19:28 00:29:24 3.330 00:08:50 1
1059635-39(M)17199ROTINI ROBERTOLIBERO01:21:19 00:31:15 3.459 00:09:02 1
1069725-29(M)16246CELI IACOPOLIBERO01:21:31 00:31:27 3.472 00:09:03 1
1079830-34(M)26228GUIDI LUCALIBERO01:24:08 00:34:04 3.644 00:09:21 1
1089935-39(M)18150CECCOLINI MICHELEROMAGNA WILD RACE01:27:35 00:37:31 3.855 00:09:44 1
10910030-34(M)27221MORICONI MORENOCROSS RULEZ GUBBIO01:29:17 00:39:13 3.953 00:09:55 1
11010150-99(M)8211SFODERA LEONARDOIRONFIT TEAM COMPETITION01:35:35 00:45:31 4.286 00:10:37 1
11110230-34(M)28204CIVA LORENZOWHITE DONKEYS OCR TEAM01:36:45 00:46:41 4.343 00:10:45 1
11210340-44(M)22195GASPARRI FABIOLIBERO01:36:50 00:46:46 4.347 00:10:46 1
11310430-34(M)29185ROCCASALVO GUGLIELMOASD CHAOS PRIMORDIALE01:38:38 00:48:34 4.432 00:10:58 1
11410540-44(M)23111AMBROSINI MIRCOSUPER RECKLESS01:39:59 00:49:55 4.493 00:11:07 1
11510630-34(M)30166MAURIZI LUCAASD CHAOS PRIMORDIALE01:42:56 00:52:52 4.622 00:11:26 1
11610718-24(M)6126GALLI FRANCESCOLIBERO01:43:06 00:53:02 4.629 00:11:27 1
1171018-24(F)3433PAGLIARINI VALENTINAANIS MUDDERS02:04:08 01:14:04 5.370 00:13:48 1
1181118-24(F)4420PACENTE FIORELLALIBERO02:06:53 01:16:49 5.449 00:14:06 1
1191245-49(F)1414DANTE RAFFAELLAGYM CENTER02:09:03 01:18:59 5.508 00:14:20 1
1201330-34(F)3423MORETTI VALENTINATEAM AROUNDTHEWOD02:13:25 01:23:21 5.623 00:14:49 1
1211425-29(F)2434GHEZZI SOFIALIBERO02:14:37 01:24:33 5.653 00:14:57 1
1221518-24(F)5432BILOTTA FEDERICAANIS MUDDERS02:38:44 01:48:40 6.161 00:17:38 1
12310850-99(M)9226ALBANO FRANCESCOANIS MUDDERS02:40:30 01:50:26 6.193 00:17:50 1
1241630-34(F)4430GUZZI GLORIAANIS MUDDERS02:41:27 01:51:23 6.209 00:17:56 1
1251725-29(F)3442LOU VERONICALIBERO01:04:52 00:14:48 2.053 00:07:12 0
12610930-34(M)31237ALBERTINI MATTIALIBERO01:15:29 00:25:25 3.030 00:08:23 0
1271835-39(F)3438FRINGUELLO LEONELLALIBERO01:18:00 00:27:56 3.223 00:08:40 0
12811040-44(M)24212LUMINARI ENRICOLIBERO01:21:18 00:31:14 3.458 00:09:02 0
12911135-39(M)19205GHINZELLI DARIOWHITE DONKEYS OCR TEAM01:28:03 00:37:59 3.882 00:09:47 0
13011218-24(M)7188SARGENTI MICHAELTHE BLACK SHEEP SPARTAN TEAM01:37:09 00:47:05 4.362 00:10:48 0
1311935-39(F)4429ROCCHI DANIELAIRONFIT TEAM COMPETITION01:37:49 00:47:45 4.393 00:10:52 0
13211345-49(M)7127PERILLO FRANCESCOASD CHAOS PRIMORDIALE01:38:38 00:48:34 4.432 00:10:58 0
1332025-29(F)4435PIETROBELLI KARIMACROSS RULEZ GUBBIO01:39:49 00:49:45 4.486 00:11:05 0
13411418-24(M)8216CAMACCIA FILIPPOANIS MUDDERS01:39:53 00:49:49 4.489 00:11:06 0
1352130-34(F)5411PORQUEDDU CARLOTTAGYM CENTER01:40:42 00:50:38 4.525 00:11:11 0
13611535-39(M)20168GIULIETTI ALBERTOLIBERO01:41:07 00:51:03 4.544 00:11:14 0
13711625-29(M)17172LEMBO LEONARDOLIBERO01:41:07 00:51:03 4.544 00:11:14 0
1382235-39(F)5412BATTICCIOTTO DANILAGYM CENTER01:41:07 00:51:03 4.544 00:11:14 0
1392335-39(F)6417CENCI PROIETTI MICHELAASD CHAOS PRIMORDIALE01:43:39 00:53:35 4.653 00:11:31 0
14011745-49(M)8101LONGHI LUCASUPER RECKLESS01:48:22 00:58:18 4.842 00:12:02 0
14111830-34(M)32170PETROCCHI GIOVANNIASD CHAOS PRIMORDIALE01:50:07 01:00:03 4.908 00:12:14 0
1422445-49(F)2413TENTONI RUGIADAGYM CENTER02:01:17 01:11:13 5.285 00:13:29 0
1432535-39(F)7403CAPRIO SAMANTHAASD CHAOS PRIMORDIALE02:05:31 01:15:27 5.410 00:13:57 0
1442625-29(F)5416AGRESTI SILVIAASD CHAOS PRIMORDIALE02:05:39 01:15:35 5.414 00:13:58 0
1452730-34(F)6408PRIOLI PATRIZIAROMAGNA WILD RACE02:14:28 01:24:24 5.649 00:14:56 0
1462835-39(F)8404BONFIGLIO VALENTINASIRACUSA SPARTAN CREW02:15:01 01:24:57 5.663 00:15:00 0
1472930-34(F)7415PRIEL HERRERA LILIANNEANIMALS OCR TEAM02:15:13 01:25:09 5.668 00:15:01 0
1483040-44(F)3441CARMECI STEFANIALIBERO02:17:35 01:27:31 5.725 00:15:17 0
1493135-39(F)9428BALICCO ALICELEO WHITE TEAM02:23:46 01:33:42 5.866 00:15:58 0
1503250-99(M)10425DI BENEDETTO SABRINATHE BLACK SHEEP SPARTAN TEAM02:26:17 01:36:13 5.920 00:16:15 0
15111930-34(M)33178SOZZI GIANPIETROLIBERO02:28:08 01:38:04 5.958 00:16:28 0
15212045-49(M)9239ALETTI SIMONELIBERO02:28:09 01:38:05 5.958 00:16:28 0
15312145-49(M)10129PENNISI DARIOSIRACUSA SPARTAN CREW02:30:01 01:39:57 5.996 00:16:40 0
1543330-34(F)8418SCARLATO VALENTINAASD CHAOS PRIMORDIALE02:32:43 01:42:39 6.049 00:16:58 0
1553435-39(F)10419DATTILO SERENAASD CHAOS PRIMORDIALE02:32:43 01:42:39 6.049 00:16:58 0
1563530-34(F)9406DE LILLO FELICIAASD CHAOS PRIMORDIALE02:32:56 01:42:52 6.054 00:17:00 0
1573635-39(F)11439FABRIZI VALENTINATHE BLACK SHEEP SPARTAN TEAM02:39:42 01:49:38 6.178 00:17:45 0
Righe per pagina::     TUTTE    |   30   |   50   |   100   Pagina:   | 1 | | 2 | | 3 | | 4 |